Current Conditions

Updated: 07-Dec-2019 06:31 AM  
Summary / Temperature Wind Rain






Feels like: 51°F

1-hour difference
0.4°F 0.4°F warmer than last hour.

24-hour difference
8.0°F8.0°F warmer than yesterday at this time.

  Today Yesterday
High: 55.9°F
1:43 AM
66.9°F
2:25 PM
Low: 50.6°F
5:22 AM
42.7°F
6:38 AM
Calm ESE
0.0
Gust:  0.0 mph
0 Beaufort - Calm

Today: 2.3 - 3:28 AM
Month: 9.0 mph - Dec 4
Rain Today: 0.00 in
Current Rate (/hr): 0.000 in
Max Rate (/hr):
Rain Yesterday: 0.00 in
Storm Rain: 0.00 in
This Month: 0.83 in
Season Total: 2.19 in
Last Rain Event: 2 days ago
Humidity / Barometer Sun / Moon
Humidity: 91  
Dew Point: 48.7°F Increased 0.4°F in the last hour.
Barometer: 30.065 inHg  
Baro Trend: Rising slowly
Sunrise: 6:54 AM
Sunset: 4:41 PM
Moonrise: 2:21 PM
Moonset: 2:19 AM
Sky Conditions UV Index
Summary: Overcast
Visibility: 10 miles
Clouds: Overcast @ 6,000 ft
KVIS - 5:56 AM PST
Current: 0.0  None 
Saturday: 2.0  Low 
Sunday: 1.9  Low 
Air Quality Fire Danger
 Good 
Ozone 13 ppb
PM 2.5 5 μg/m3
6:30 AM PST
Current: 0  Low 

Local Alerts Local Forecast
Local NWS Alerts
Today

Rain

High 63
Tonight

Rain

Low 49
Sun

Rain

High 60
Sun night

Rain
Showers
Low 42
Mon

Mostly
Sunny
High 58
Mon night

Partly
Cloudy
Low 38
Tue

Partly
Cloudy
High 59

Local Radar Local Satellite Neighborhood Cam Sky Cam
Local Radar Local Satellite Neighborhood Cam Sky Cam


Nearby Airport Stations

KVIS - Visalia, California, USA
Distance from station: W 14mi, 23km
Updated: Sat, 07-Dec-2019 5:56am PST
Overcast
Overcast
 Wind from SSW
Wind: SSW 5 mph , 7 km/h
Temperature: 54°F , 12°C
Dew Point: 48°F , 9°C
Humidity: 82%
Barometer: 30.06 inHg , 1017.9 hPa
Clouds: Overcast
Visibility: 10 miles , 16 km
Cloud details: Overcast 6000 ft
2019/12/07 13:56 KVIS 071356Z AUTO 21004KT 10SM OVC060 12/09 A3006 RMK AO2 SLP187 T01170094
KPTV - Porterville, California, USA
Distance from station: SSE 19mi, 31km
Updated: Sat, 07-Dec-2019 5:56am PST
Few Clouds
Few Clouds
 Wind from S
Wind: S 5 mph , 7 km/h
Temperature: 52°F , 11°C
Dew Point: 48°F , 9°C
Humidity: 88%
Barometer: 30.05 inHg , 1017.6 hPa
Clouds: Few Clouds
Visibility: 10 miles , 16 km
Cloud details: Few Clouds 12000 ft
2019/12/07 13:56 KPTV 071356Z AUTO 19004KT 10SM FEW120 11/09 A3005 RMK AO2 SLP178 T01110089

Metar display script from Saratoga-Weather.org



Visitor Map